createdAt,value
2023-05-01T00:01:00.176Z,14.80
2023-05-01T00:03:27.596Z,14.77
2023-05-01T00:06:07.944Z,14.75
2023-05-01T00:08:35.165Z,14.75
2023-05-01T00:11:09.851Z,14.71
2023-05-01T00:13:37.583Z,14.74
2023-05-01T00:16:12.685Z,14.73
2023-05-01T00:18:40.000Z,14.75
2023-05-01T00:21:07.139Z,14.76
2023-05-01T00:23:34.308Z,14.76
2023-05-01T00:26:01.504Z,14.73
2023-05-01T00:28:29.138Z,14.80
2023-05-01T00:30:57.776Z,14.72
2023-05-01T00:33:24.889Z,14.69
2023-05-01T00:35:52.802Z,14.66
2023-05-01T00:38:19.960Z,14.63
2023-05-01T00:40:47.652Z,14.61
2023-05-01T00:43:14.879Z,14.63
2023-05-01T00:45:46.366Z,14.64
2023-05-01T00:48:14.950Z,14.65
2023-05-01T00:50:44.279Z,14.61
2023-05-01T00:53:12.345Z,14.56
2023-05-01T00:55:42.957Z,14.57
2023-05-01T00:58:14.150Z,14.55
2023-05-01T01:00:41.472Z,14.56
2023-05-01T01:03:08.924Z,14.58
2023-05-01T01:05:53.856Z,14.59
2023-05-01T01:08:34.395Z,14.57
2023-05-01T01:11:21.719Z,14.57
2023-05-01T01:14:32.956Z,14.53
2023-05-01T01:17:38.773Z,14.50
2023-05-01T01:20:32.378Z,14.55
2023-05-01T01:23:48.213Z,14.47
2023-05-01T01:27:20.475Z,14.40
2023-05-01T01:30:23.636Z,14.38
2023-05-01T01:34:24.893Z,14.37
2023-05-01T01:37:18.928Z,14.32
2023-05-01T01:39:55.406Z,14.35
2023-05-01T01:42:31.675Z,14.34
2023-05-01T01:45:30.424Z,14.36
2023-05-01T01:47:58.983Z,14.37
2023-05-01T01:50:28.474Z,14.37
2023-05-01T01:53:00.535Z,14.36
2023-05-01T01:55:31.664Z,14.35
2023-05-01T01:58:00.060Z,14.31
2023-05-01T02:00:28.467Z,14.29
2023-05-01T02:02:59.101Z,14.28
2023-05-01T02:05:27.130Z,14.27
2023-05-01T02:07:56.468Z,14.24
2023-05-01T02:10:24.576Z,14.21
2023-05-01T02:12:53.274Z,14.18
2023-05-01T02:15:22.499Z,14.19
2023-05-01T02:17:52.616Z,14.22
2023-05-01T02:20:22.088Z,14.19
2023-05-01T02:22:52.580Z,14.20
2023-05-01T02:25:19.943Z,14.15
2023-05-01T02:28:02.010Z,14.10
2023-05-01T02:30:29.660Z,14.08
2023-05-01T02:32:57.794Z,14.13
2023-05-01T02:35:25.123Z,14.09
2023-05-01T02:37:52.450Z,14.08
2023-05-01T02:40:19.922Z,14.08
2023-05-01T02:42:49.747Z,14.06
2023-05-01T02:45:23.749Z,14.09
2023-05-01T02:47:56.431Z,14.11
2023-05-01T02:50:25.110Z,14.08
2023-05-01T02:52:52.516Z,13.98
2023-05-01T02:55:31.355Z,14.02
2023-05-01T02:57:59.874Z,14.01
2023-05-01T03:00:27.953Z,14.00
2023-05-01T03:02:55.347Z,13.96
2023-05-01T03:05:22.973Z,13.97
2023-05-01T03:07:51.142Z,13.98
2023-05-01T03:10:18.548Z,13.98
2023-05-01T03:12:45.901Z,13.94
2023-05-01T03:15:13.259Z,13.89
2023-05-01T03:17:40.453Z,13.91
2023-05-01T03:20:10.779Z,13.94
2023-05-01T03:22:37.960Z,13.92
2023-05-01T03:25:05.892Z,13.91
2023-05-01T03:27:33.107Z,13.95
2023-05-01T03:30:00.264Z,13.98
2023-05-01T03:32:29.473Z,14.00
2023-05-01T03:34:57.271Z,14.00
2023-05-01T03:37:25.860Z,14.00
2023-05-01T03:39:53.998Z,14.00
2023-05-01T03:42:40.383Z,14.01
2023-05-01T03:45:14.967Z,13.99
2023-05-01T03:47:42.355Z,13.97
2023-05-01T03:50:10.560Z,13.95
2023-05-01T03:52:40.765Z,13.94
2023-05-01T03:55:08.845Z,13.91
2023-05-01T03:57:40.976Z,13.90
2023-05-01T04:00:10.948Z,13.88
2023-05-01T04:02:45.785Z,13.89
2023-05-01T04:05:18.227Z,13.89
2023-05-01T04:07:51.679Z,13.88
2023-05-01T04:10:18.985Z,13.87
2023-05-01T04:12:55.309Z,13.91
2023-05-01T04:15:22.620Z,13.99
2023-05-01T04:17:50.269Z,14.00
2023-05-01T04:20:19.422Z,13.99
2023-05-01T04:22:47.697Z,13.98
2023-05-01T04:25:14.927Z,13.98
2023-05-01T04:27:42.599Z,14.00
2023-05-01T04:30:10.690Z,13.96
2023-05-01T04:32:38.844Z,13.93
2023-05-01T04:35:07.011Z,13.92
2023-05-01T04:37:35.678Z,13.89
2023-05-01T04:40:04.343Z,13.93
2023-05-01T04:42:34.346Z,13.94
2023-05-01T04:45:04.041Z,13.94
2023-05-01T04:47:34.912Z,13.90
2023-05-01T04:50:02.216Z,13.88
2023-05-01T04:52:30.827Z,13.87
2023-05-01T04:55:00.377Z,13.83
2023-05-01T04:57:30.541Z,13.80
2023-05-01T05:00:00.414Z,13.84
2023-05-01T05:02:27.957Z,13.90
2023-05-01T05:04:56.347Z,13.86
2023-05-01T05:07:23.773Z,13.82
2023-05-01T05:10:09.962Z,13.85
2023-05-01T05:12:37.723Z,13.91
2023-05-01T05:15:06.578Z,13.92
2023-05-01T05:17:33.867Z,13.95
2023-05-01T05:20:01.112Z,13.96
2023-05-01T05:22:28.321Z,14.01
2023-05-01T05:25:31.118Z,14.05
2023-05-01T05:27:59.671Z,14.05
2023-05-01T05:30:27.813Z,14.04
2023-05-01T05:32:55.378Z,14.07
2023-05-01T05:35:26.179Z,14.07
2023-05-01T05:37:54.577Z,14.09
2023-05-01T05:40:21.751Z,14.09
2023-05-01T05:42:57.226Z,14.08
2023-05-01T05:45:26.521Z,14.05
2023-05-01T05:47:53.834Z,14.08
2023-05-01T05:50:21.106Z,14.12
2023-05-01T05:52:48.614Z,14.14
2023-05-01T05:55:15.889Z,14.17
2023-05-01T05:57:52.833Z,14.21
2023-05-01T06:00:20.199Z,14.26
2023-05-01T06:02:50.196Z,14.29
2023-05-01T06:05:19.619Z,14.32
2023-05-01T06:07:47.082Z,14.34
2023-05-01T06:10:14.199Z,14.36
2023-05-01T06:12:41.715Z,14.38
2023-05-01T06:15:16.845Z,14.45
2023-05-01T06:17:49.059Z,14.47
2023-05-01T06:20:16.508Z,14.53
2023-05-01T06:22:43.830Z,14.55
2023-05-01T06:25:29.053Z,14.65
2023-05-01T06:27:56.207Z,14.70
2023-05-01T06:30:24.319Z,14.70
2023-05-01T06:32:51.599Z,14.78
2023-05-01T06:35:20.915Z,14.90
2023-05-01T06:37:48.136Z,14.95
2023-05-01T06:40:15.357Z,14.97
2023-05-01T06:42:43.037Z,14.93
2023-05-01T06:45:10.295Z,14.95
2023-05-01T06:47:37.450Z,15.01
2023-05-01T06:50:05.863Z,15.08
2023-05-01T06:52:33.961Z,15.12
2023-05-01T06:55:01.296Z,15.19
2023-05-01T06:57:28.481Z,15.16
2023-05-01T06:59:56.367Z,15.13
2023-05-01T07:02:23.881Z,15.15
2023-05-01T07:04:51.103Z,15.15
2023-05-01T07:07:18.282Z,15.10
2023-05-01T07:09:45.514Z,15.05
2023-05-01T07:12:12.660Z,15.13
2023-05-01T07:14:41.430Z,15.12
2023-05-01T07:17:09.218Z,15.07
2023-05-01T07:19:36.376Z,15.10
2023-05-01T07:22:04.676Z,15.18
2023-05-01T07:24:31.697Z,15.29
2023-05-01T07:26:59.963Z,15.35
2023-05-01T07:29:27.110Z,15.30
2023-05-01T07:31:54.527Z,15.33
2023-05-01T07:34:21.793Z,15.38
2023-05-01T07:36:49.014Z,15.45
2023-05-01T07:39:17.576Z,15.49
2023-05-01T07:41:44.769Z,15.53
2023-05-01T07:44:11.927Z,15.62
2023-05-01T07:46:39.104Z,15.74
2023-05-01T07:49:06.550Z,15.84
2023-05-01T07:51:33.725Z,16.04
2023-05-01T07:54:04.482Z,16.18
2023-05-01T07:56:31.936Z,16.30
2023-05-01T07:58:59.089Z,16.47
2023-05-01T08:01:26.823Z,16.68
2023-05-01T08:03:54.089Z,16.71
2023-05-01T08:06:21.465Z,16.79
2023-05-01T08:08:48.647Z,16.60
2023-05-01T08:11:16.434Z,16.42
2023-05-01T08:13:43.576Z,16.55
2023-05-01T08:16:10.799Z,16.49
2023-05-01T08:18:38.056Z,16.58
2023-05-01T08:21:05.271Z,16.62
2023-05-01T08:23:32.810Z,16.71
2023-05-01T08:26:00.013Z,16.77
2023-05-01T08:28:27.184Z,16.91
2023-05-01T08:30:54.356Z,16.94
2023-05-01T08:33:21.656Z,17.01
2023-05-01T08:35:49.322Z,16.80
2023-05-01T08:38:16.840Z,16.95
2023-05-01T08:40:53.880Z,16.97
2023-05-01T08:43:21.387Z,17.20
2023-05-01T08:45:49.742Z,17.26
2023-05-01T08:48:20.599Z,17.37
2023-05-01T08:50:48.721Z,17.38
2023-05-01T08:53:19.083Z,17.58
2023-05-01T08:55:47.771Z,17.25
2023-05-01T08:58:17.845Z,17.28
2023-05-01T09:00:46.951Z,17.81
2023-05-01T09:03:14.696Z,17.82
2023-05-01T09:05:42.408Z,17.29
2023-05-01T09:08:09.542Z,17.43
2023-05-01T09:10:46.033Z,17.92
2023-05-01T09:13:13.218Z,18.02
2023-05-01T09:15:40.502Z,17.98
2023-05-01T09:18:09.197Z,17.65
2023-05-01T09:20:37.766Z,17.79
2023-05-01T09:23:05.111Z,17.70
2023-05-01T09:25:32.346Z,18.21
2023-05-01T09:27:59.462Z,18.01
2023-05-01T09:30:38.478Z,17.54
2023-05-01T09:33:14.891Z,17.50
2023-05-01T09:35:57.209Z,17.65
2023-05-01T09:38:27.266Z,17.80
2023-05-01T09:41:06.031Z,18.15
2023-05-01T09:43:33.912Z,17.96
2023-05-01T09:46:10.517Z,18.34
2023-05-01T09:48:38.765Z,18.29
2023-05-01T09:51:29.060Z,18.48
2023-05-01T09:54:00.420Z,18.25
2023-05-01T09:56:31.762Z,18.18
2023-05-01T09:59:20.006Z,18.35
2023-05-01T10:01:50.046Z,18.42
2023-05-01T10:04:18.124Z,18.41
2023-05-01T10:06:45.656Z,18.25
2023-05-01T10:09:29.137Z,18.20
2023-05-01T10:11:57.737Z,18.31
2023-05-01T10:14:26.929Z,17.94
2023-05-01T10:16:56.623Z,18.17
2023-05-01T10:19:23.908Z,18.23
2023-05-01T10:21:51.204Z,18.23
2023-05-01T10:24:18.674Z,18.20
2023-05-01T10:26:50.516Z,18.05
2023-05-01T10:29:21.044Z,17.65
2023-05-01T10:31:48.321Z,17.53
2023-05-01T10:34:20.006Z,17.65
2023-05-01T10:36:57.912Z,17.73
2023-05-01T10:39:34.574Z,17.21
2023-05-01T10:42:13.978Z,17.11
2023-05-01T10:44:42.716Z,17.18
2023-05-01T10:47:27.781Z,17.46
2023-05-01T10:50:15.974Z,17.19
2023-05-01T10:53:16.547Z,17.55
2023-05-01T10:55:46.729Z,17.59
2023-05-01T10:58:38.483Z,17.05
2023-05-01T11:01:29.999Z,16.81
2023-05-01T11:04:09.712Z,17.27
2023-05-01T11:06:40.144Z,17.08
2023-05-01T11:09:57.397Z,17.20
2023-05-01T11:12:46.306Z,17.02
2023-05-01T11:15:27.053Z,16.77
2023-05-01T11:17:55.780Z,17.04
2023-05-01T11:20:25.856Z,17.03
2023-05-01T11:22:55.770Z,16.80
2023-05-01T11:25:27.601Z,16.47
2023-05-01T11:28:03.894Z,16.57
2023-05-01T11:30:41.206Z,16.49
2023-05-01T11:33:10.524Z,16.56
2023-05-01T11:35:38.448Z,17.09
2023-05-01T11:38:05.607Z,17.10
2023-05-01T11:40:36.632Z,17.23
2023-05-01T11:43:09.045Z,16.84
2023-05-01T11:45:38.029Z,16.74
2023-05-01T11:48:14.527Z,16.53
2023-05-01T11:50:41.817Z,16.90
2023-05-01T11:53:18.526Z,16.64
2023-05-01T11:55:45.930Z,17.03
2023-05-01T11:58:13.296Z,17.35
2023-05-01T12:00:43.192Z,17.59
2023-05-01T12:03:14.904Z,17.81
2023-05-01T12:05:45.199Z,17.94
2023-05-01T12:08:20.681Z,17.99
2023-05-01T12:10:57.800Z,18.09
2023-05-01T12:13:26.953Z,18.25
2023-05-01T12:15:56.185Z,18.30
2023-05-01T12:18:23.671Z,18.18
2023-05-01T12:20:54.601Z,18.14
2023-05-01T12:23:37.220Z,18.03
2023-05-01T12:26:23.510Z,17.96
2023-05-01T12:29:04.731Z,18.01
2023-05-01T12:31:32.194Z,18.34
2023-05-01T12:34:07.659Z,18.50
2023-05-01T12:36:37.097Z,18.44
2023-05-01T12:39:09.091Z,18.31
2023-05-01T12:41:46.063Z,18.34
2023-05-01T12:44:26.578Z,18.34
2023-05-01T12:47:12.975Z,18.34
2023-05-01T12:49:41.446Z,18.21
2023-05-01T12:52:09.421Z,18.14
2023-05-01T12:54:40.550Z,18.23
2023-05-01T12:57:14.994Z,18.33
2023-05-01T12:59:47.228Z,18.36
2023-05-01T13:02:17.875Z,18.62
2023-05-01T13:04:48.923Z,18.86
2023-05-01T13:07:19.173Z,19.41
2023-05-01T13:09:59.331Z,19.55
2023-05-01T13:12:28.677Z,20.13
2023-05-01T13:14:56.874Z,20.73
2023-05-01T13:17:26.051Z,20.70
2023-05-01T13:20:03.959Z,20.28
2023-05-01T13:22:40.507Z,19.92
2023-05-01T13:25:22.455Z,19.99
2023-05-01T13:27:54.022Z,19.78
2023-05-01T13:30:33.289Z,19.82
2023-05-01T13:33:01.827Z,19.59
2023-05-01T13:35:29.306Z,19.80
2023-05-01T13:37:56.867Z,19.92
2023-05-01T13:40:26.066Z,20.15
2023-05-01T13:42:54.025Z,20.87
2023-05-01T13:45:21.508Z,21.00
2023-05-01T13:47:51.838Z,20.68
2023-05-01T13:50:19.270Z,20.49
2023-05-01T13:52:46.633Z,19.95
2023-05-01T13:55:14.671Z,19.69
2023-05-01T13:57:43.181Z,19.54
2023-05-01T14:00:19.414Z,18.97
2023-05-01T14:02:49.198Z,19.26
2023-05-01T14:05:30.376Z,19.44
2023-05-01T14:07:58.816Z,19.41
2023-05-01T14:10:29.577Z,19.20
2023-05-01T14:12:58.957Z,19.26
2023-05-01T14:15:28.658Z,19.35
2023-05-01T14:17:55.919Z,19.35
2023-05-01T14:20:25.700Z,19.20
2023-05-01T14:22:53.391Z,19.41
2023-05-01T14:25:37.397Z,19.40
2023-05-01T14:28:08.195Z,19.57
2023-05-01T14:30:38.904Z,19.73
2023-05-01T14:33:11.125Z,19.81
2023-05-01T14:35:52.790Z,20.08
2023-05-01T14:38:25.914Z,19.99
2023-05-01T14:40:53.122Z,19.94
2023-05-01T14:43:23.405Z,19.64
2023-05-01T14:45:50.765Z,19.08
2023-05-01T14:48:26.680Z,19.35
2023-05-01T14:50:59.273Z,19.31
2023-05-01T14:53:31.951Z,19.16
2023-05-01T14:55:59.108Z,19.06
2023-05-01T14:58:26.228Z,18.96
2023-05-01T15:00:53.425Z,18.57
2023-05-01T15:03:20.676Z,18.44
2023-05-01T15:05:47.916Z,18.26
2023-05-01T15:08:15.096Z,18.21
2023-05-01T15:10:43.524Z,18.12
2023-05-01T15:13:10.816Z,17.93
2023-05-01T15:15:38.027Z,17.89
2023-05-01T15:18:05.564Z,17.90
2023-05-01T15:20:34.255Z,17.95
2023-05-01T15:23:01.391Z,17.99
2023-05-01T15:25:29.978Z,17.94
2023-05-01T15:27:57.392Z,18.03
2023-05-01T15:30:25.056Z,18.01
2023-05-01T15:32:52.744Z,18.03
2023-05-01T15:35:21.395Z,18.02
2023-05-01T15:37:50.550Z,18.14
2023-05-01T15:40:18.087Z,18.04
2023-05-01T15:42:47.925Z,18.03
2023-05-01T15:45:15.146Z,18.08
2023-05-01T15:47:42.420Z,18.04
2023-05-01T15:50:11.904Z,18.04
2023-05-01T15:52:39.511Z,17.86
2023-05-01T15:55:07.448Z,17.75
2023-05-01T15:57:35.811Z,17.78
2023-05-01T16:00:04.512Z,17.59
2023-05-01T16:02:32.717Z,17.62
2023-05-01T16:05:00.589Z,17.53
2023-05-01T16:07:29.806Z,17.61
2023-05-01T16:10:00.251Z,17.64
2023-05-01T16:12:28.874Z,17.58
2023-05-01T16:14:56.519Z,17.44
2023-05-01T16:17:23.708Z,17.35
2023-05-01T16:19:52.540Z,17.32
2023-05-01T16:22:21.209Z,17.34
2023-05-01T16:24:48.472Z,17.40
2023-05-01T16:27:18.527Z,17.20
2023-05-01T16:29:45.874Z,17.25
2023-05-01T16:32:14.484Z,17.23
2023-05-01T16:34:43.447Z,17.23
2023-05-01T16:37:15.102Z,17.17
2023-05-01T16:39:42.400Z,17.04
2023-05-01T16:42:13.196Z,16.94
2023-05-01T16:44:40.598Z,16.91
2023-05-01T16:47:12.642Z,16.83
2023-05-01T16:49:44.412Z,16.58
2023-05-01T16:52:14.322Z,16.34
2023-05-01T16:54:41.554Z,16.30
2023-05-01T16:57:08.748Z,16.38
2023-05-01T16:59:37.492Z,16.34
2023-05-01T17:02:05.901Z,16.07
2023-05-01T17:04:33.512Z,16.06
2023-05-01T17:07:00.881Z,16.09
2023-05-01T17:09:28.095Z,16.05
2023-05-01T17:11:56.818Z,15.98
2023-05-01T17:14:24.524Z,15.94
2023-05-01T17:16:53.226Z,15.88
2023-05-01T17:19:20.713Z,15.86
2023-05-01T17:21:47.854Z,15.83
2023-05-01T17:24:15.132Z,15.76
2023-05-01T17:26:42.302Z,15.74
2023-05-01T17:29:09.491Z,15.77
2023-05-01T17:31:36.711Z,15.74
2023-05-01T17:34:03.922Z,15.57
2023-05-01T17:36:32.122Z,15.56
2023-05-01T17:39:01.301Z,15.49
2023-05-01T17:41:28.680Z,15.55
2023-05-01T17:43:55.875Z,15.44
2023-05-01T17:46:23.096Z,15.34
2023-05-01T17:48:50.244Z,15.14
2023-05-01T17:51:18.081Z,15.09
2023-05-01T17:53:45.985Z,15.06
2023-05-01T17:56:13.131Z,14.81
2023-05-01T17:58:40.959Z,14.74
2023-05-01T18:01:08.525Z,14.56
2023-05-01T18:03:35.824Z,14.45
2023-05-01T18:06:04.257Z,14.43
2023-05-01T18:08:31.612Z,14.40
2023-05-01T18:10:58.803Z,14.14
2023-05-01T18:13:28.460Z,14.16
2023-05-01T18:15:56.409Z,14.15
2023-05-01T18:18:24.006Z,14.11
2023-05-01T18:20:51.726Z,14.10
2023-05-01T18:23:19.080Z,14.12
2023-05-01T18:25:46.346Z,14.13
2023-05-01T18:28:16.242Z,14.07
2023-05-01T18:30:43.675Z,14.13
2023-05-01T18:33:11.439Z,14.16
2023-05-01T18:35:42.352Z,14.16
2023-05-01T18:38:12.800Z,14.15
2023-05-01T18:40:40.014Z,14.15
2023-05-01T18:43:07.211Z,14.16
2023-05-01T18:45:34.354Z,14.07
2023-05-01T18:48:01.578Z,14.07
2023-05-01T18:50:28.785Z,14.13
2023-05-01T18:52:55.908Z,14.15
2023-05-01T18:55:23.130Z,14.09
2023-05-01T18:57:50.384Z,14.12
2023-05-01T19:00:18.048Z,14.12
2023-05-01T19:02:51.201Z,14.05
2023-05-01T19:05:18.790Z,13.99
2023-05-01T19:07:46.446Z,14.05
2023-05-01T19:10:14.321Z,14.08
2023-05-01T19:12:42.017Z,14.01
2023-05-01T19:15:10.264Z,13.93
2023-05-01T19:17:37.710Z,13.94
2023-05-01T19:20:06.189Z,13.96
2023-05-01T19:22:33.266Z,13.98
2023-05-01T19:25:00.472Z,13.85
2023-05-01T19:27:27.682Z,13.73
2023-05-01T19:29:54.960Z,13.79
2023-05-01T19:32:23.225Z,13.76
2023-05-01T19:34:50.682Z,13.73
2023-05-01T19:37:17.897Z,13.66
2023-05-01T19:39:45.087Z,13.61
2023-05-01T19:42:12.291Z,13.58
2023-05-01T19:44:40.124Z,13.54
2023-05-01T19:47:07.255Z,13.48
2023-05-01T19:49:34.750Z,13.46
2023-05-01T19:52:01.958Z,13.43
2023-05-01T19:54:29.172Z,13.40
2023-05-01T19:56:57.064Z,13.35
2023-05-01T19:59:24.411Z,13.30
2023-05-01T20:01:51.731Z,13.29
2023-05-01T20:04:19.247Z,13.26
2023-05-01T20:06:46.910Z,13.23
2023-05-01T20:09:14.169Z,13.23
2023-05-01T20:11:41.394Z,13.19
2023-05-01T20:14:08.518Z,13.15
2023-05-01T20:16:36.048Z,13.09
2023-05-01T20:19:03.286Z,13.04
2023-05-01T20:21:31.073Z,12.98
2023-05-01T20:23:58.478Z,12.93
2023-05-01T20:26:25.737Z,12.92
2023-05-01T20:28:53.569Z,12.93
2023-05-01T20:31:21.290Z,12.91
2023-05-01T20:33:48.526Z,12.93
2023-05-01T20:36:17.191Z,12.88
2023-05-01T20:38:45.478Z,12.94
2023-05-01T20:41:12.847Z,12.90
2023-05-01T20:43:40.121Z,12.95
2023-05-01T20:46:07.292Z,12.92
2023-05-01T20:48:34.619Z,12.93
2023-05-01T20:51:01.733Z,12.88
2023-05-01T20:53:28.869Z,12.85
2023-05-01T20:55:56.039Z,12.87
2023-05-01T20:58:23.165Z,12.84
2023-05-01T21:00:53.341Z,12.74
2023-05-01T21:03:20.687Z,12.68
2023-05-01T21:05:48.102Z,12.59
2023-05-01T21:08:15.666Z,12.51
2023-05-01T21:10:42.866Z,12.49
2023-05-01T21:13:10.129Z,12.48
2023-05-01T21:15:43.807Z,12.50
2023-05-01T21:18:14.583Z,12.47
2023-05-01T21:20:45.398Z,12.44
2023-05-01T21:23:17.759Z,12.45
2023-05-01T21:25:44.999Z,12.47
2023-05-01T21:28:13.934Z,12.42
2023-05-01T21:30:41.419Z,12.35
2023-05-01T21:33:14.370Z,12.28
2023-05-01T21:35:44.790Z,12.21
2023-05-01T21:38:12.552Z,12.21
2023-05-01T21:40:46.080Z,12.26
2023-05-01T21:43:13.394Z,12.21
2023-05-01T21:45:44.571Z,12.25
2023-05-01T21:48:16.000Z,12.22
2023-05-01T21:50:43.260Z,12.22
2023-05-01T21:53:10.508Z,12.20
2023-05-01T21:55:38.733Z,12.18
2023-05-01T21:58:05.946Z,12.17
2023-05-01T22:00:33.654Z,12.13
2023-05-01T22:03:05.876Z,12.13
2023-05-01T22:05:34.427Z,12.11
2023-05-01T22:08:01.679Z,12.06
2023-05-01T22:10:29.637Z,11.98
2023-05-01T22:12:56.824Z,11.94
2023-05-01T22:15:24.031Z,11.93
2023-05-01T22:17:51.356Z,11.95
2023-05-01T22:20:18.851Z,11.98
2023-05-01T22:22:45.977Z,11.95
2023-05-01T22:25:13.195Z,11.80
2023-05-01T22:27:40.726Z,11.83
2023-05-01T22:30:08.589Z,11.88
2023-05-01T22:32:35.993Z,11.90
2023-05-01T22:35:03.898Z,11.94
2023-05-01T22:37:31.292Z,11.94
2023-05-01T22:39:58.715Z,11.77
2023-05-01T22:42:26.126Z,11.68
2023-05-01T22:44:53.367Z,11.65
2023-05-01T22:47:20.628Z,11.63
2023-05-01T22:49:47.917Z,11.60
2023-05-01T22:52:15.373Z,11.59
2023-05-01T22:54:42.526Z,11.58
2023-05-01T22:57:10.199Z,11.60
2023-05-01T22:59:39.506Z,11.55
2023-05-01T23:02:06.866Z,11.56
2023-05-01T23:04:34.079Z,11.55
2023-05-01T23:07:01.211Z,11.57
2023-05-01T23:09:32.075Z,11.49
2023-05-01T23:11:59.313Z,11.45
2023-05-01T23:14:26.536Z,11.57
2023-05-01T23:16:56.283Z,11.62
2023-05-01T23:19:25.103Z,11.58
2023-05-01T23:22:12.449Z,11.57
2023-05-01T23:24:49.233Z,11.51
2023-05-01T23:27:19.116Z,11.46
2023-05-01T23:29:58.705Z,11.64
2023-05-01T23:32:30.004Z,11.60
2023-05-01T23:35:23.659Z,11.52
2023-05-01T23:37:52.744Z,11.56
2023-05-01T23:40:20.162Z,11.48
2023-05-01T23:42:48.012Z,11.45
2023-05-01T23:45:16.970Z,11.43
2023-05-01T23:47:44.175Z,11.49
2023-05-01T23:50:11.617Z,11.46
2023-05-01T23:52:38.830Z,11.48
2023-05-01T23:55:06.255Z,11.47
2023-05-01T23:57:33.367Z,11.48
